Time;durP1;ratioP1;P1;durP2;ratioP2;P2;SDS_P1;SDS_P2;PMS_P1;PMS_P2;Temp;Humidity;BMP_temperature;BMP_pressure;BME280_temperature;BME280_humidity;BME280_pressure;Samples;Min_cycle;Max_cycle;Signal;HPM_P1;HPM_P2
2023/03/02 00:01:52;;;;;;;37.20;24.73;;;3.70;82.90;;;;;;5079411;28;20040;-80
2023/03/02 00:04:38;;;;;;;42.78;26.48;;;3.70;83.00;;;;;;5076647;28;20433;-79
2023/03/02 00:07:09;;;;;;;36.22;24.63;;;3.70;83.40;;;;;;5076594;28;20071;-79
2023/03/02 00:09:36;;;;;;;36.33;24.60;;;3.90;83.00;;;;;;5093417;28;20040;-80
2023/03/02 00:12:03;;;;;;;41.50;25.67;;;3.70;82.70;;;;;;5091049;28;20041;-79
2023/03/02 00:14:29;;;;;;;37.75;25.15;;;3.70;82.70;;;;;;5093359;28;20036;-80
2023/03/02 00:16:55;;;;;;;37.47;25.20;;;3.70;83.00;;;;;;5093675;28;20100;-80
2023/03/02 00:19:21;;;;;;;37.83;25.13;;;3.70;82.50;;;;;;5108912;27;20441;-80
2023/03/02 00:21:46;;;;;;;38.75;25.98;;;3.70;82.40;;;;;;5084154;28;20035;-80
2023/03/02 00:24:14;;;;;;;37.65;25.25;;;3.70;82.70;;;;;;5059735;28;20051;-80
2023/03/02 00:26:40;;;;;;;40.88;25.27;;;3.80;82.30;;;;;;5076663;28;20044;-79
2023/03/02 00:29:07;;;;;;;38.65;25.08;;;3.70;82.30;;;;;;5093287;28;20043;-80
2023/03/02 00:31:32;;;;;;;36.58;23.58;;;3.70;82.20;;;;;;5076510;28;20039;-81
2023/03/02 00:33:58;;;;;;;40.65;25.83;;;3.60;82.20;;;;;;5115809;27;20050;-80
2023/03/02 00:36:24;;;;;;;37.38;25.85;;;3.60;82.10;;;;;;5109888;28;20115;-80
2023/03/02 00:38:53;;;;;;;38.97;25.35;;;3.60;82.10;;;;;;5076269;28;20093;-80
2023/03/02 00:41:20;;;;;;;47.03;27.33;;;3.60;82.10;;;;;;5092868;28;20040;-81
2023/03/02 00:43:46;;;;;;;41.35;26.00;;;3.60;82.20;;;;;;5092909;28;20036;-80
2023/03/02 00:46:14;;;;;;;41.17;25.55;;;3.60;82.50;;;;;;5093128;28;20024;-79
2023/03/02 00:48:40;;;;;;;37.15;23.58;;;3.60;82.40;;;;;;5092463;28;20054;-80
2023/03/02 00:51:07;;;;;;;36.95;24.27;;;3.60;82.40;;;;;;5092853;28;20044;-80
2023/03/02 00:53:34;;;;;;;37.40;24.60;;;3.60;82.40;;;;;;5067403;28;20039;-80
2023/03/02 00:56:01;;;;;;;41.35;25.08;;;3.60;82.40;;;;;;5076206;28;20054;-80
2023/03/02 00:58:27;;;;;;;40.88;26.80;;;3.50;82.30;;;;;;5074284;28;20078;-80
2023/03/02 01:00:53;;;;;;;39.55;25.10;;;3.60;82.20;;;;;;5092877;28;20039;-80
2023/03/02 01:03:19;;;;;;;38.88;24.13;;;3.60;82.20;;;;;;5075359;28;20510;-80
2023/03/02 01:05:45;;;;;;;39.88;24.83;;;3.50;82.00;;;;;;5075817;28;20044;-79
2023/03/02 01:08:11;;;;;;;40.53;24.88;;;3.60;82.00;;;;;;5092309;28;20137;-80
2023/03/02 01:10:37;;;;;;;39.58;24.58;;;3.40;81.80;;;;;;5096012;28;20042;-80
2023/03/02 01:13:04;;;;;;;39.88;25.50;;;3.40;81.60;;;;;;5059599;28;20663;-79
2023/03/02 01:15:31;;;;;;;40.13;26.40;;;3.40;81.60;;;;;;5092056;28;20040;-80
2023/03/02 01:17:58;;;;;;;41.63;25.80;;;3.30;81.60;;;;;;5092303;28;20044;-80
2023/03/02 01:20:24;;;;;;;41.38;24.73;;;3.30;81.70;;;;;;5092085;28;20042;-80
2023/03/02 01:22:50;;;;;;;44.07;25.53;;;3.40;81.90;;;;;;5092353;28;20533;-79
2023/03/02 01:25:15;;;;;;;40.70;26.17;;;3.20;82.00;;;;;;5055207;28;20094;-80
2023/03/02 01:27:41;;;;;;;41.70;26.48;;;3.20;82.00;;;;;;5118448;27;20047;-80
2023/03/02 01:30:08;;;;;;;44.30;26.10;;;3.20;82.10;;;;;;5075371;28;20072;-80
2023/03/02 01:32:34;;;;;;;43.33;26.35;;;3.20;82.20;;;;;;5092097;28;20044;-80
2023/03/02 01:34:59;;;;;;;48.17;27.67;;;3.20;82.20;;;;;;5104877;28;20411;-80
2023/03/02 01:37:25;;;;;;;44.22;26.83;;;3.30;82.30;;;;;;5106405;28;20036;-80
2023/03/02 01:39:51;;;;;;;44.47;28.20;;;3.10;82.30;;;;;;5105505;28;20044;-80
2023/03/02 01:42:17;;;;;;;42.80;27.10;;;3.10;82.40;;;;;;5091920;28;20090;-79
2023/03/02 01:44:55;;;;;;;48.22;28.33;;;3.10;82.40;;;;;;5091876;28;20391;-79
2023/03/02 01:47:31;;;;;;;46.03;26.73;;;3.10;82.60;;;;;;5091588;28;20039;-80
2023/03/02 01:50:20;;;;;;;47.10;27.63;;;3.10;82.70;;;;;;5091791;28;20039;-79
2023/03/02 01:52:47;;;;;;;52.33;29.40;;;3.10;82.80;;;;;;5091784;28;20092;-80
2023/03/02 01:55:17;;;;;;;44.85;27.50;;;3.10;82.70;;;;;;5074737;28;20055;-80
2023/03/02 01:57:46;;;;;;;47.07;27.80;;;3.20;83.00;;;;;;5091530;28;20071;-80
2023/03/02 02:00:22;;;;;;;51.83;30.23;;;3.10;82.90;;;;;;5075159;28;20036;-80
2023/03/02 02:02:49;;;;;;;51.93;30.00;;;3.10;83.00;;;;;;5084040;28;20040;-79
2023/03/02 02:05:19;;;;;;;49.15;29.75;;;3.10;82.90;;;;;;5092087;28;20383;-80
2023/03/02 02:07:45;;;;;;;50.90;29.47;;;3.10;83.10;;;;;;5091423;28;20028;-79
2023/03/02 02:10:11;;;;;;;54.33;30.30;;;3.10;83.10;;;;;;5108576;28;20036;-79
2023/03/02 02:12:36;;;;;;;47.30;27.58;;;3.10;83.20;;;;;;5091476;28;20597;-80
2023/03/02 02:15:03;;;;;;;51.30;28.30;;;3.10;83.20;;;;;;5074500;28;20032;-79
2023/03/02 02:17:30;;;;;;;48.30;28.77;;;3.10;83.40;;;;;;5088424;28;20815;-80
2023/03/02 02:20:06;;;;;;;53.00;30.50;;;3.10;83.40;;;;;;5108785;28;20480;-79
2023/03/02 02:22:55;;;;;;;51.40;30.02;;;3.10;83.40;;;;;;5075627;28;20079;-80
2023/03/02 02:26:04;;;;;;;50.47;29.93;;;3.10;83.30;;;;;;5066415;28;20122;-80
2023/03/02 02:28:41;;;;;;;46.17;27.38;;;3.10;83.20;;;;;;5073140;28;20040;-79
2023/03/02 02:31:33;;;;;;;47.27;29.20;;;3.10;83.10;;;;;;5086225;28;20123;-79
2023/03/02 02:34:23;;;;;;;48.17;27.70;;;3.10;83.20;;;;;;5039077;28;20076;-79
2023/03/02 02:36:52;;;;;;;49.92;27.38;;;3.10;83.10;;;;;;5090697;28;20136;-79
2023/03/02 02:39:23;;;;;;;49.05;27.85;;;3.10;83.20;;;;;;5074328;28;20047;-79
2023/03/02 02:41:54;;;;;;;47.57;28.83;;;3.20;83.30;;;;;;5091482;28;20066;-79
2023/03/02 02:44:20;;;;;;;50.88;29.45;;;3.00;83.20;;;;;;5091553;28;20050;-79
2023/03/02 02:46:45;;;;;;;51.95;30.45;;;3.00;83.20;;;;;;5091295;28;20098;-79
2023/03/02 02:49:17;;;;;;;52.22;29.98;;;3.00;83.40;;;;;;5074495;28;20046;-79
2023/03/02 02:51:43;;;;;;;50.67;30.03;;;3.00;83.40;;;;;;5074471;28;20529;-79
2023/03/02 02:54:16;;;;;;;50.53;28.70;;;3.10;83.50;;;;;;5074189;28;20067;-79
2023/03/02 02:56:42;;;;;;;47.30;28.40;;;3.00;83.60;;;;;;5074187;28;20376;-79
2023/03/02 02:59:34;;;;;;;53.13;29.40;;;3.00;83.50;;;;;;5085993;28;20055;-79
2023/03/02 03:02:00;;;;;;;45.03;27.90;;;3.10;83.80;;;;;;5073440;28;20044;-79
2023/03/02 03:04:29;;;;;;;49.30;28.97;;;3.10;83.70;;;;;;5090979;28;20064;-79
2023/03/02 03:07:00;;;;;;;44.93;27.70;;;3.00;83.50;;;;;;5091137;28;20506;-79
2023/03/02 03:09:27;;;;;;;50.72;28.60;;;3.10;83.70;;;;;;5090845;28;20130;-79
2023/03/02 03:12:19;;;;;;;48.15;27.75;;;3.00;83.60;;;;;;5091315;28;20440;-79
2023/03/02 03:14:45;;;;;;;45.70;27.58;;;3.10;83.70;;;;;;5074329;28;20399;-79
2023/03/02 03:17:11;;;;;;;52.70;28.97;;;3.10;83.70;;;;;;5091189;28;20064;-79
2023/03/02 03:19:44;;;;;;;48.53;28.97;;;3.10;83.70;;;;;;5073981;28;20055;-79
2023/03/02 03:22:12;;;;;;;49.13;28.80;;;3.00;83.60;;;;;;5092028;28;20081;-79
2023/03/02 03:24:39;;;;;;;51.40;29.60;;;3.10;83.70;;;;;;5094692;28;20086;-79
2023/03/02 03:27:06;;;;;;;49.60;29.73;;;3.10;83.70;;;;;;5072015;28;20062;-79
2023/03/02 03:29:33;;;;;;;52.57;28.60;;;3.00;83.60;;;;;;5077757;28;20036;-79
2023/03/02 03:32:01;;;;;;;42.30;26.17;;;3.00;83.70;;;;;;5094430;28;20127;-79
2023/03/02 03:34:27;;;;;;;48.03;27.77;;;3.00;83.50;;;;;;5094359;28;20133;-79
2023/03/02 03:36:54;;;;;;;49.43;28.27;;;3.00;83.40;;;;;;5094329;28;20036;-79
2023/03/02 03:39:20;;;;;;;49.47;29.43;;;3.00;83.50;;;;;;5077498;28;20044;-79
2023/03/02 03:41:45;;;;;;;50.27;28.20;;;3.00;83.60;;;;;;5094145;28;20036;-79
2023/03/02 03:44:11;;;;;;;52.33;29.00;;;3.30;83.90;;;;;;5040692;28;20032;-79
2023/03/02 03:46:37;;;;;;;49.05;27.50;;;2.90;83.70;;;;;;5074369;28;20130;-79
2023/03/02 03:49:03;;;;;;;46.73;27.50;;;2.90;83.70;;;;;;5058384;28;20044;-79
2023/03/02 03:51:34;;;;;;;49.37;28.50;;;2.90;83.70;;;;;;5094359;28;20127;-79
2023/03/02 03:54:00;;;;;;;50.87;28.30;;;2.90;83.70;;;;;;5061160;28;20093;-79
2023/03/02 03:56:38;;;;;;;47.37;26.20;;;2.90;83.70;;;;;;5093697;28;20108;-79
2023/03/02 03:59:07;;;;;;;45.60;27.40;;;2.90;83.80;;;;;;5093424;28;20054;-79
2023/03/02 04:01:40;;;;;;;49.00;28.37;;;2.90;83.90;;;;;;5093707;28;20040;-79
2023/03/02 04:04:08;;;;;;;47.20;27.23;;;2.90;84.00;;;;;;5076934;28;20040;-79
2023/03/02 04:06:34;;;;;;;49.47;29.53;;;2.90;84.00;;;;;;5093643;28;20067;-79
2023/03/02 04:09:03;;;;;;;49.03;27.40;;;2.90;83.90;;;;;;5093962;28;20040;-79
2023/03/02 04:11:38;;;;;;;46.93;28.20;;;2.80;83.80;;;;;;5093733;28;20032;-79
2023/03/02 04:14:05;;;;;;;48.83;27.30;;;2.90;84.00;;;;;;5093574;28;20506;-79
2023/03/02 04:16:31;;;;;;;52.77;28.93;;;2.80;83.90;;;;;;5093798;28;20067;-79
2023/03/02 04:18:57;;;;;;;45.30;26.33;;;2.90;84.00;;;;;;5076589;28;20036;-79
2023/03/02 04:21:23;;;;;;;45.43;26.77;;;2.90;84.00;;;;;;5076553;28;20123;-78
2023/03/02 04:23:49;;;;;;;48.37;29.03;;;2.80;83.80;;;;;;5076238;28;20050;-78
2023/03/02 04:26:15;;;;;;;43.27;26.10;;;2.80;83.80;;;;;;5093742;28;20543;-80
2023/03/02 04:28:41;;;;;;;44.47;25.30;;;2.80;83.80;;;;;;5077022;28;20093;-78
2023/03/02 04:31:06;;;;;;;48.50;27.43;;;2.80;83.80;;;;;;5097600;28;20149;-79
2023/03/02 04:33:32;;;;;;;45.17;26.23;;;2.70;83.70;;;;;;5088955;28;20075;-79
2023/03/02 04:35:58;;;;;;;44.60;25.43;;;2.70;83.70;;;;;;5093112;28;20583;-78
2023/03/02 04:38:28;;;;;;;49.73;26.60;;;2.70;83.80;;;;;;5059423;28;20041;-79
2023/03/02 04:40:55;;;;;;;46.43;25.87;;;2.70;83.80;;;;;;5093066;28;20387;-79
2023/03/02 04:43:21;;;;;;;47.57;26.70;;;2.70;83.90;;;;;;5093193;28;20440;-79
2023/03/02 04:45:47;;;;;;;46.67;27.70;;;2.60;83.80;;;;;;5093121;28;20040;-79
2023/03/02 04:48:12;;;;;;;45.37;25.47;;;2.70;83.90;;;;;;5092885;28;20054;-79
2023/03/02 04:50:39;;;;;;;44.17;25.50;;;2.60;83.90;;;;;;5075947;28;20048;-79
2023/03/02 04:53:05;;;;;;;51.63;28.33;;;2.60;84.00;;;;;;5056584;28;20036;-79
2023/03/02 04:55:31;;;;;;;54.27;28.03;;;2.60;84.00;;;;;;5076124;28;20046;-79
2023/03/02 04:57:57;;;;;;;47.90;25.90;;;2.60;84.00;;;;;;5092349;28;20510;-79
2023/03/02 05:00:24;;;;;;;50.17;27.37;;;2.50;84.10;;;;;;5092322;28;20044;-79
2023/03/02 05:02:50;;;;;;;48.37;25.90;;;2.50;84.10;;;;;;5092909;28;20075;-79
2023/03/02 05:05:19;;;;;;;48.60;28.13;;;2.50;84.20;;;;;;5076545;28;20028;-79
2023/03/02 05:07:45;;;;;;;49.90;27.37;;;2.70;84.40;;;;;;5093345;28;20054;-78
2023/03/02 05:10:13;;;;;;;50.17;26.87;;;2.70;84.40;;;;;;5092845;28;20047;-79
2023/03/02 05:12:56;;;;;;;52.27;27.20;;;2.60;84.40;;;;;;5076277;28;20028;-79
2023/03/02 05:15:25;;;;;;;47.40;26.57;;;2.50;84.40;;;;;;5092771;28;20094;-78
2023/03/02 05:17:52;;;;;;;53.63;28.23;;;2.50;84.40;;;;;;5092759;28;20089;-78
2023/03/02 05:20:18;;;;;;;57.17;28.47;;;2.50;84.40;;;;;;5075710;28;20040;-78
2023/03/02 05:22:44;;;;;;;51.50;27.23;;;2.50;84.40;;;;;;5092797;28;20093;-78
2023/03/02 05:25:10;;;;;;;50.23;26.47;;;2.60;84.50;;;;;;5076131;28;20441;-78
2023/03/02 05:27:36;;;;;;;49.87;25.93;;;2.50;84.40;;;;;;5092820;28;20431;-79
2023/03/02 05:30:04;;;;;;;47.40;25.53;;;2.50;84.50;;;;;;5092630;28;20036;-79
2023/03/02 05:32:30;;;;;;;52.77;26.80;;;2.40;84.40;;;;;;5092905;28;20036;-79
2023/03/02 05:34:55;;;;;;;49.43;25.57;;;2.40;84.40;;;;;;5080653;28;20036;-79
2023/03/02 05:37:21;;;;;;;50.40;25.67;;;2.40;84.40;;;;;;5095937;28;20078;-79
2023/03/02 05:39:47;;;;;;;54.07;26.80;;;2.40;84.50;;;;;;5093527;28;20035;-79
2023/03/02 05:42:13;;;;;;;62.20;26.60;;;2.50;84.60;;;;;;5112783;28;20383;-79
2023/03/02 05:44:38;;;;;;;54.47;27.77;;;2.40;84.50;;;;;;5078735;28;20113;-79
2023/03/02 05:47:04;;;;;;;59.07;28.27;;;2.40;84.50;;;;;;5095902;28;20109;-72
2023/03/02 05:49:30;;;;;;;60.77;26.57;;;2.40;84.50;;;;;;5095598;28;20130;-72
2023/03/02 05:51:55;;;;;;;56.97;26.60;;;2.30;84.60;;;;;;5112111;28;20039;-72
2023/03/02 05:54:21;;;;;;;56.33;26.00;;;2.30;84.70;;;;;;5066160;28;20397;-72
2023/03/02 05:56:47;;;;;;;53.97;25.90;;;2.30;84.70;;;;;;5091716;28;20040;-72
2023/03/02 05:59:12;;;;;;;50.03;25.00;;;2.30;84.60;;;;;;5057676;28;20060;-72
2023/03/02 06:01:38;;;;;;;48.03;24.60;;;2.30;84.70;;;;;;5057658;28;20044;-72
2023/03/02 06:04:04;;;;;;;52.97;25.17;;;2.30;84.70;;;;;;5074766;28;20040;-72
2023/03/02 06:06:30;;;;;;;50.90;26.40;;;2.30;84.80;;;;;;5074795;28;20036;-72
2023/03/02 06:08:55;;;;;;;51.07;26.00;;;2.20;84.80;;;;;;5075134;28;20047;-72
2023/03/02 06:11:21;;;;;;;57.37;26.17;;;2.20;84.80;;;;;;5074861;28;20047;-72
2023/03/02 06:13:47;;;;;;;59.87;26.37;;;2.20;84.80;;;;;;5091922;28;20127;-72
2023/03/02 06:16:12;;;;;;;56.40;27.83;;;2.20;84.80;;;;;;5072429;28;20048;-72
2023/03/02 06:18:38;;;;;;;64.03;27.37;;;2.20;84.90;;;;;;5071310;28;20424;-72
2023/03/02 06:21:04;;;;;;;60.33;27.50;;;2.20;84.90;;;;;;5071316;28;20036;-72
2023/03/02 06:23:30;;;;;;;53.77;28.33;;;2.20;85.00;;;;;;5089919;28;20124;-72
2023/03/02 06:25:57;;;;;;;62.53;27.93;;;2.20;85.00;;;;;;5124135;28;20076;-72
2023/03/02 06:28:23;;;;;;;60.33;28.40;;;2.20;85.10;;;;;;5091384;28;20119;-72
2023/03/02 06:30:51;;;;;;;60.23;27.37;;;2.20;85.10;;;;;;5091511;28;20098;-72
2023/03/02 06:33:19;;;;;;;66.97;28.17;;;2.20;85.20;;;;;;5091505;28;20143;-72
2023/03/02 06:35:45;;;;;;;55.10;27.57;;;2.20;85.20;;;;;;5091359;28;20044;-72
2023/03/02 06:38:11;;;;;;;68.70;26.50;;;2.20;85.30;;;;;;5091512;28;20040;-72
2023/03/02 06:40:37;;;;;;;52.23;25.27;;;2.40;85.50;;;;;;5125439;28;20071;-72
2023/03/02 06:43:02;;;;;;;49.27;24.97;;;2.20;85.40;;;;;;5075923;28;20068;-72
2023/03/02 06:45:28;;;;;;;48.60;24.60;;;2.10;85.20;;;;;;5074301;28;20541;-72
2023/03/02 06:47:54;;;;;;;50.90;24.83;;;2.10;85.20;;;;;;5090771;28;20043;-72
2023/03/02 06:50:20;;;;;;;50.73;24.57;;;2.10;85.30;;;;;;5091232;28;20495;-71
2023/03/02 06:52:46;;;;;;;49.53;24.47;;;2.10;85.30;;;;;;5108131;28;20074;-72
2023/03/02 06:55:12;;;;;;;56.93;26.03;;;2.10;85.40;;;;;;5125411;28;20105;-72
2023/03/02 06:57:38;;;;;;;55.37;27.00;;;2.10;85.50;;;;;;5110358;28;20515;-73
2023/03/02 07:00:15;;;;;;;63.40;27.10;;;2.10;85.60;;;;;;5105471;28;20410;-73
2023/03/02 07:02:43;;;;;;;54.83;26.10;;;2.10;85.70;;;;;;5091885;28;20388;-71
2023/03/02 07:05:09;;;;;;;60.23;27.53;;;2.10;85.70;;;;;;5086363;28;20043;-71
2023/03/02 07:07:34;;;;;;;68.47;25.70;;;2.20;85.70;;;;;;5098202;28;20039;-72
2023/03/02 07:10:00;;;;;;;56.27;27.13;;;2.10;85.70;;;;;;5112884;28;20055;-71
2023/03/02 07:12:26;;;;;;;51.20;25.37;;;2.10;85.60;;;;;;5115242;28;20180;-71
2023/03/02 07:14:51;;;;;;;53.77;24.97;;;2.10;85.60;;;;;;5114951;28;20040;-71
2023/03/02 07:17:17;;;;;;;50.83;24.37;;;2.10;85.60;;;;;;5081408;28;20050;-71
2023/03/02 07:19:43;;;;;;;55.07;26.07;;;2.10;85.60;;;;;;5097929;28;20128;-71
2023/03/02 07:22:08;;;;;;;49.83;24.87;;;2.20;85.80;;;;;;5077470;28;20059;-71
2023/03/02 07:24:34;;;;;;;55.57;25.63;;;2.10;85.80;;;;;;5041576;28;20388;-71
2023/03/02 07:27:00;;;;;;;49.90;23.70;;;2.10;85.80;;;;;;5057451;28;20480;-71
2023/03/02 07:29:25;;;;;;;55.53;25.43;;;2.20;85.80;;;;;;5110848;28;20044;-71
2023/03/02 07:31:55;;;;;;;56.33;27.13;;;2.10;85.80;;;;;;5094664;28;20437;-71
2023/03/02 07:34:23;;;;;;;62.93;27.27;;;2.20;85.80;;;;;;5077521;28;20093;-72
2023/03/02 07:36:49;;;;;;;56.03;26.47;;;2.20;85.90;;;;;;5077545;28;20093;-71
2023/03/02 07:39:15;;;;;;;56.90;25.60;;;2.20;85.90;;;;;;5088169;28;20048;-71
2023/03/02 07:41:40;;;;;;;58.83;27.37;;;2.20;85.90;;;;;;5097712;28;20124;-71
2023/03/02 07:44:06;;;;;;;52.50;25.83;;;2.30;86.00;;;;;;5114550;28;20422;-71
2023/03/02 07:46:31;;;;;;;53.60;24.77;;;2.20;85.90;;;;;;5092056;28;20065;-71
2023/03/02 07:48:58;;;;;;;59.67;26.17;;;2.30;86.00;;;;;;5096068;28;20126;-72
2023/03/02 07:51:24;;;;;;;60.17;26.33;;;2.20;86.00;;;;;;5097497;28;20044;-71
2023/03/02 07:53:49;;;;;;;56.87;26.43;;;2.30;86.10;;;;;;5114417;28;20050;-71
2023/03/02 07:56:15;;;;;;;54.37;25.23;;;2.40;86.10;;;;;;5114358;28;20047;-71
2023/03/02 07:58:41;;;;;;;55.13;25.97;;;2.30;86.00;;;;;;5113972;28;20407;-72
2023/03/02 08:01:07;;;;;;;53.00;25.87;;;2.60;86.20;;;;;;5085624;28;20043;-72
2023/03/02 08:03:34;;;;;;;52.03;25.47;;;2.30;86.00;;;;;;5095889;28;20043;-72
2023/03/02 08:06:08;;;;;;;51.80;23.90;;;2.30;86.00;;;;;;5114025;28;20044;-72
2023/03/02 08:08:34;;;;;;;53.63;24.13;;;2.30;86.10;;;;;;5113824;28;20036;-72
2023/03/02 08:11:08;;;;;;;51.87;25.70;;;2.30;86.00;;;;;;5113962;28;20054;-72
2023/03/02 08:13:34;;;;;;;49.33;24.48;;;2.30;86.00;;;;;;5113890;28;20040;-72
2023/03/02 08:16:05;;;;;;;48.57;23.43;;;2.30;85.90;;;;;;5084114;28;20096;-72
2023/03/02 08:18:32;;;;;;;52.83;24.60;;;2.40;86.00;;;;;;5106278;28;20040;-72
2023/03/02 08:20:58;;;;;;;54.60;23.70;;;2.40;85.90;;;;;;5093554;28;20042;-72
2023/03/02 08:23:24;;;;;;;56.43;25.27;;;2.30;85.80;;;;;;5110407;27;20032;-71
2023/03/02 08:25:52;;;;;;;48.97;23.83;;;2.30;85.80;;;;;;5093234;28;20032;-72
2023/03/02 08:28:18;;;;;;;53.73;23.50;;;2.40;85.80;;;;;;5076194;28;20035;-72
2023/03/02 08:30:44;;;;;;;52.63;25.00;;;2.70;86.00;;;;;;5089627;28;20127;-72
2023/03/02 08:33:10;;;;;;;54.03;24.63;;;2.40;85.90;;;;;;5073116;28;20133;-72
2023/03/02 08:35:35;;;;;;;50.67;24.03;;;2.60;86.10;;;;;;5056486;28;20483;-72
2023/03/02 08:38:01;;;;;;;48.00;24.50;;;2.40;86.00;;;;;;5089048;28;20043;-72
2023/03/02 08:40:27;;;;;;;51.53;23.77;;;2.40;86.00;;;;;;5096503;28;20047;-72
2023/03/02 08:42:56;;;;;;;46.73;23.20;;;2.40;86.00;;;;;;5096276;28;20119;-71
2023/03/02 08:45:25;;;;;;;47.07;24.10;;;2.50;86.10;;;;;;5101542;28;20048;-72
2023/03/02 08:47:54;;;;;;;46.67;24.27;;;2.50;86.20;;;;;;5079915;28;20064;-71
2023/03/02 08:50:20;;;;;;;40.73;23.30;;;2.50;86.20;;;;;;5062237;28;20063;-72
2023/03/02 08:52:46;;;;;;;38.67;21.85;;;2.50;86.10;;;;;;5092992;28;20040;-72
2023/03/02 08:55:12;;;;;;;36.03;21.30;;;2.50;86.00;;;;;;5109799;28;20038;-72
2023/03/02 08:57:40;;;;;;;38.97;22.20;;;2.50;85.90;;;;;;5076043;28;20093;-72
2023/03/02 09:00:08;;;;;;;37.03;22.13;;;2.60;86.00;;;;;;5082834;28;20105;-71
2023/03/02 09:02:33;;;;;;;39.40;22.03;;;2.50;85.90;;;;;;5085413;28;20047;-72
2023/03/02 09:04:59;;;;;;;41.07;21.03;;;2.60;85.90;;;;;;5069069;28;20040;-73
2023/03/02 09:07:25;;;;;;;38.67;20.80;;;2.80;85.90;;;;;;5086584;28;20061;-73
2023/03/02 09:09:50;;;;;;;40.73;21.93;;;2.60;85.90;;;;;;5086647;28;20062;-73
2023/03/02 09:12:16;;;;;;;40.53;22.33;;;2.60;85.80;;;;;;5070946;28;20048;-73
2023/03/02 09:14:42;;;;;;;43.93;21.80;;;2.60;85.90;;;;;;5080764;28;20388;-73
2023/03/02 09:17:07;;;;;;;37.90;21.57;;;2.70;86.00;;;;;;5067816;28;20059;-73
2023/03/02 09:19:40;;;;;;;36.23;20.97;;;2.70;86.00;;;;;;5081691;28;20495;-72
2023/03/02 09:22:07;;;;;;;36.33;20.40;;;2.70;86.10;;;;;;5070127;28;20074;-73
2023/03/02 09:24:34;;;;;;;35.50;20.73;;;2.70;86.10;;;;;;5091474;28;20092;-72
2023/03/02 09:26:59;;;;;;;35.40;20.47;;;2.80;86.00;;;;;;5058347;28;20036;-73
2023/03/02 09:29:25;;;;;;;32.97;19.97;;;2.80;85.80;;;;;;5058018;28;20380;-72
2023/03/02 09:31:50;;;;;;;35.47;21.17;;;2.80;85.90;;;;;;5093736;28;20035;-71
2023/03/02 09:34:16;;;;;;;31.90;20.00;;;2.80;85.80;;;;;;5065934;28;20043;-71
2023/03/02 09:36:42;;;;;;;33.03;19.70;;;2.80;85.70;;;;;;5079801;28;20075;-71
2023/03/02 09:39:11;;;;;;;34.23;20.10;;;2.90;85.70;;;;;;5074695;28;20403;-72
2023/03/02 09:41:43;;;;;;;36.97;20.80;;;2.90;85.70;;;;;;5093100;28;20059;-73
2023/03/02 09:44:09;;;;;;;33.40;20.40;;;2.90;85.70;;;;;;5092525;28;20500;-73
2023/03/02 09:46:48;;;;;;;32.73;20.37;;;2.90;85.60;;;;;;5107923;27;20045;-73
2023/03/02 09:49:32;;;;;;;35.72;21.65;;;2.90;85.70;;;;;;5079867;28;20043;-73
2023/03/02 09:52:01;;;;;;;32.30;19.30;;;2.90;85.70;;;;;;5083506;28;20078;-73
2023/03/02 09:54:29;;;;;;;32.50;19.90;;;3.00;85.70;;;;;;5094788;28;20036;-73
2023/03/02 09:56:57;;;;;;;31.23;19.70;;;3.10;85.70;;;;;;5098208;28;20497;-73
2023/03/02 09:59:30;;;;;;;33.10;19.77;;;3.10;85.50;;;;;;5075563;28;20116;-73
2023/03/02 10:02:22;;;;;;;30.25;19.13;;;3.00;85.30;;;;;;5088030;28;20483;-74
2023/03/02 10:04:52;;;;;;;32.58;20.30;;;3.10;85.30;;;;;;5080551;28;20051;-74
2023/03/02 10:07:32;;;;;;;33.97;20.33;;;3.20;85.40;;;;;;5074569;28;20040;-74
2023/03/02 10:10:25;;;;;;;36.30;22.00;;;3.10;85.20;;;;;;5091371;28;20044;-74
2023/03/02 10:13:21;;;;;;;36.47;21.47;;;3.10;85.30;;;;;;5080061;28;20048;-74
2023/03/02 10:16:01;;;;;;;35.20;21.63;;;3.20;85.50;;;;;;5091687;28;20392;-74
2023/03/02 10:18:39;;;;;;;33.42;21.23;;;3.20;85.50;;;;;;5091069;28;20047;-74
2023/03/02 10:21:26;;;;;;;34.55;21.08;;;3.30;85.60;;;;;;5091253;28;20080;-74
2023/03/02 10:24:00;;;;;;;36.70;22.77;;;3.30;85.60;;;;;;5091272;28;20036;-74
2023/03/02 10:26:39;;;;;;;37.70;20.25;;;3.40;85.70;;;;;;5091065;28;20044;-74
2023/03/02 10:29:16;;;;;;;31.88;20.35;;;3.50;85.80;;;;;;5074520;28;20063;-74
2023/03/02 10:31:44;;;;;;;30.42;19.90;;;3.50;85.80;;;;;;5076941;28;20052;-74
2023/03/02 10:34:11;;;;;;;35.35;22.48;;;3.60;85.50;;;;;;5095451;28;20070;-74
2023/03/02 10:36:39;;;;;;;34.03;21.50;;;3.80;85.50;;;;;;5061988;28;20039;-74
2023/03/02 10:39:14;;;;;;;32.25;21.25;;;3.70;85.40;;;;;;5095076;28;20448;-74
2023/03/02 10:42:05;;;;;;;33.67;20.20;;;3.80;85.40;;;;;;5095040;28;20395;-74
2023/03/02 10:44:36;;;;;;;33.22;20.55;;;3.80;85.40;;;;;;5095066;28;20032;-74
2023/03/02 10:47:03;;;;;;;31.23;20.00;;;3.90;85.20;;;;;;5078443;28;20127;-74
2023/03/02 10:49:40;;;;;;;33.30;21.15;;;4.00;85.30;;;;;;5078173;28;20039;-73
2023/03/02 10:52:23;;;;;;;29.95;20.17;;;4.10;85.20;;;;;;5078036;28;20051;-71
2023/03/02 10:54:59;;;;;;;28.58;18.90;;;4.20;85.00;;;;;;5094960;28;20054;-72
2023/03/02 10:57:41;;;;;;;30.23;20.33;;;4.20;84.60;;;;;;5094945;28;20044;-73
2023/03/02 11:00:23;;;;;;;29.45;20.55;;;4.30;84.60;;;;;;5077677;28;20084;-72
2023/03/02 11:02:49;;;;;;;30.52;21.10;;;4.50;84.60;;;;;;5077266;28;20036;-72
2023/03/02 11:05:19;;;;;;;32.25;21.85;;;4.60;84.50;;;;;;5094819;28;20050;-72
2023/03/02 11:07:56;;;;;;;28.52;20.55;;;4.70;84.20;;;;;;5077293;28;20479;-72
2023/03/02 11:10:57;;;;;;;29.65;21.45;;;4.70;83.50;;;;;;5081319;28;20040;-73
2023/03/02 11:13:32;;;;;;;29.63;18.88;;;4.80;83.10;;;;;;5081500;28;20040;-73
2023/03/02 11:16:18;;;;;;;30.63;21.75;;;4.90;83.00;;;;;;5077595;28;20043;-72
2023/03/02 11:18:50;;;;;;;32.90;21.05;;;4.90;82.80;;;;;;5093694;28;20140;-72
2023/03/02 11:21:24;;;;;;;31.15;20.20;;;5.00;82.80;;;;;;5077361;28;20040;-73
2023/03/02 11:23:56;;;;;;;;;;;5.10;82.70;;;;;;5077338;28;20044;-73
2023/03/02 11:26:29;;;;;;;31.95;20.95;;;5.10;82.00;;;;;;5094531;28;19919;-72
2023/03/02 11:29:10;;;;;;;29.75;20.17;;;5.20;82.10;;;;;;5093884;28;20036;-73
2023/03/02 11:31:54;;;;;;;29.70;20.63;;;5.20;81.50;;;;;;5094124;28;20040;-72
2023/03/02 11:34:45;;;;;;;28.60;20.42;;;5.20;81.00;;;;;;5094490;28;20492;-73
2023/03/02 11:37:34;;;;;;;29.65;20.27;;;5.30;80.60;;;;;;5077118;28;20051;-73
2023/03/02 11:40:12;;;;;;;27.50;19.42;;;5.30;80.70;;;;;;5090534;28;20047;-73
2023/03/02 11:42:41;;;;;;;33.65;21.17;;;5.30;80.40;;;;;;5079644;28;20079;-72
2023/03/02 11:45:12;;;;;;;29.60;20.63;;;5.40;80.50;;;;;;5094205;28;20044;-73
2023/03/02 11:47:41;;;;;;;28.13;20.02;;;5.40;80.60;;;;;;5076741;28;20039;-73
2023/03/02 11:50:13;;;;;;;27.60;20.05;;;5.50;80.50;;;;;;5076998;28;20040;-73
2023/03/02 11:52:45;;;;;;;29.58;20.55;;;5.50;80.20;;;;;;5094032;28;20387;-74
2023/03/02 11:55:21;;;;;;;31.95;21.75;;;5.60;80.20;;;;;;5093891;28;20062;-73
2023/03/02 11:58:15;;;;;;;27.83;19.70;;;5.60;79.80;;;;;;5095922;28;20044;-73
2023/03/02 12:00:41;;;;;;;29.45;20.15;;;5.60;79.70;;;;;;5076813;28;20048;-73
2023/03/02 12:03:22;;;;;;;27.35;19.65;;;5.70;79.90;;;;;;5062130;28;20087;-73
2023/03/02 12:05:51;;;;;;;26.52;19.08;;;5.80;79.80;;;;;;5082694;28;20054;-73
2023/03/02 12:08:20;;;;;;;24.73;18.63;;;5.80;79.60;;;;;;5066122;28;20068;-73
2023/03/02 12:10:56;;;;;;;28.55;20.33;;;5.90;79.10;;;;;;5063573;28;20139;-73
2023/03/02 12:13:29;;;;;;;27.90;20.30;;;5.90;78.80;;;;;;5061962;28;20039;-72
2023/03/02 12:15:55;;;;;;;28.80;20.17;;;5.90;78.90;;;;;;5079726;28;20040;-73
2023/03/02 12:18:21;;;;;;;28.73;19.98;;;5.90;79.30;;;;;;5078648;28;20040;-73
2023/03/02 12:21:05;;;;;;;27.63;19.30;;;5.80;79.50;;;;;;5113676;27;20102;-73
2023/03/02 12:23:34;;;;;;;28.38;20.42;;;6.10;79.40;;;;;;5113801;27;20063;-73
2023/03/02 12:26:20;;;;;;;27.73;20.00;;;6.10;79.20;;;;;;5063465;28;20028;-72
2023/03/02 12:28:59;;;;;;;26.98;19.52;;;6.30;79.20;;;;;;5068933;28;20072;-72
2023/03/02 12:31:37;;;;;;;28.30;20.30;;;6.30;78.80;;;;;;5063371;28;20051;-72
2023/03/02 12:34:20;;;;;;;26.98;20.25;;;6.40;78.70;;;;;;5079577;28;20124;-72
2023/03/02 12:36:46;;;;;;;26.27;19.25;;;6.40;78.30;;;;;;5080957;28;20055;-72
2023/03/02 12:39:42;;;;;;;25.98;18.88;;;6.40;78.00;;;;;;5063269;28;20123;-72
2023/03/02 12:42:25;;;;;;;27.23;19.77;;;6.50;77.60;;;;;;5063056;28;20504;-72
2023/03/02 12:44:51;;;;;;;25.38;17.77;;;6.50;77.10;;;;;;5112184;27;20096;-72
2023/03/02 12:47:25;;;;;;;28.02;19.27;;;6.50;76.50;;;;;;5062499;28;20048;-72
2023/03/02 12:50:15;;;;;;;29.13;19.15;;;6.50;76.70;;;;;;5102140;28;20040;-72
2023/03/02 12:52:40;;;;;;;27.73;20.05;;;6.50;76.70;;;;;;5092681;28;20048;-73